sensor_id;sensor_type;location;lat;lon;timestamp;temperature;humidity
36132;DHT22;22185;48.738;9.324;2023-04-08T00:01:01;9.00;99.90
36132;DHT22;22185;48.738;9.324;2023-04-08T00:03:03;9.00;99.90
36132;DHT22;22185;48.738;9.324;2023-04-08T00:05:05;9.00;99.90
36132;DHT22;22185;48.738;9.324;2023-04-08T00:07:07;9.00;99.90
36132;DHT22;22185;48.738;9.324;2023-04-08T00:09:09;9.00;99.90
36132;DHT22;22185;48.738;9.324;2023-04-08T00:11:11;9.00;99.90
36132;DHT22;22185;48.738;9.324;2023-04-08T00:13:12;9.00;99.90
36132;DHT22;22185;48.738;9.324;2023-04-08T00:15:15;9.00;99.90
36132;DHT22;22185;48.738;9.324;2023-04-08T00:17:17;9.00;99.90
36132;DHT22;22185;48.738;9.324;2023-04-08T00:19:18;8.90;99.90
36132;DHT22;22185;48.738;9.324;2023-04-08T00:21:20;8.90;99.90
36132;DHT22;22185;48.738;9.324;2023-04-08T00:23:22;8.90;99.90
36132;DHT22;22185;48.738;9.324;2023-04-08T00:25:24;8.90;99.90
36132;DHT22;22185;48.738;9.324;2023-04-08T00:27:26;8.90;99.90
36132;DHT22;22185;48.738;9.324;2023-04-08T00:29:28;8.90;99.90
36132;DHT22;22185;48.738;9.324;2023-04-08T00:31:30;8.80;99.90
36132;DHT22;22185;48.738;9.324;2023-04-08T00:33:32;8.80;99.90
36132;DHT22;22185;48.738;9.324;2023-04-08T00:35:34;8.70;99.90
36132;DHT22;22185;48.738;9.324;2023-04-08T00:37:35;8.60;99.90
36132;DHT22;22185;48.738;9.324;2023-04-08T00:39:37;8.60;99.90
36132;DHT22;22185;48.738;9.324;2023-04-08T00:41:39;8.60;99.90
36132;DHT22;22185;48.738;9.324;2023-04-08T00:43:41;8.60;99.90
36132;DHT22;22185;48.738;9.324;2023-04-08T00:45:42;8.50;99.90
36132;DHT22;22185;48.738;9.324;2023-04-08T00:47:44;8.50;99.90
36132;DHT22;22185;48.738;9.324;2023-04-08T00:49:47;8.60;99.90
36132;DHT22;22185;48.738;9.324;2023-04-08T00:51:48;8.60;99.90
36132;DHT22;22185;48.738;9.324;2023-04-08T00:53:51;8.60;99.90
36132;DHT22;22185;48.738;9.324;2023-04-08T00:55:52;8.70;99.90
36132;DHT22;22185;48.738;9.324;2023-04-08T00:57:54;8.70;99.90
36132;DHT22;22185;48.738;9.324;2023-04-08T00:59:56;8.70;99.90
36132;DHT22;22185;48.738;9.324;2023-04-08T01:04:04;8.60;99.90
36132;DHT22;22185;48.738;9.324;2023-04-08T01:08:18;8.60;99.90
36132;DHT22;22185;48.738;9.324;2023-04-08T01:10:22;8.70;99.90
36132;DHT22;22185;48.738;9.324;2023-04-08T01:12:28;8.70;99.90
36132;DHT22;22185;48.738;9.324;2023-04-08T01:14:30;8.70;99.90
36132;DHT22;22185;48.738;9.324;2023-04-08T01:16:33;8.70;99.90
36132;DHT22;22185;48.738;9.324;2023-04-08T01:18:35;8.70;99.90
36132;DHT22;22185;48.738;9.324;2023-04-08T01:20:37;8.70;99.90
36132;DHT22;22185;48.738;9.324;2023-04-08T01:25:05;8.70;99.90
36132;DHT22;22185;48.738;9.324;2023-04-08T01:27:09;8.60;99.90
36132;DHT22;22185;48.738;9.324;2023-04-08T01:29:11;8.70;99.90
36132;DHT22;22185;48.738;9.324;2023-04-08T01:31:13;8.70;99.90
36132;DHT22;22185;48.738;9.324;2023-04-08T01:33:16;8.70;99.90
36132;DHT22;22185;48.738;9.324;2023-04-08T01:35:18;8.60;99.90
36132;DHT22;22185;48.738;9.324;2023-04-08T01:37:20;8.60;99.90
36132;DHT22;22185;48.738;9.324;2023-04-08T01:39:22;8.70;99.90
36132;DHT22;22185;48.738;9.324;2023-04-08T01:41:25;8.70;99.90
36132;DHT22;22185;48.738;9.324;2023-04-08T01:43:28;8.60;99.90
36132;DHT22;22185;48.738;9.324;2023-04-08T01:45:30;8.60;99.90
36132;DHT22;22185;48.738;9.324;2023-04-08T01:47:31;8.70;99.90
36132;DHT22;22185;48.738;9.324;2023-04-08T01:49:34;8.70;99.90
36132;DHT22;22185;48.738;9.324;2023-04-08T01:51:36;8.70;99.90
36132;DHT22;22185;48.738;9.324;2023-04-08T01:53:39;8.70;99.90
36132;DHT22;22185;48.738;9.324;2023-04-08T01:55:41;8.70;99.90
36132;DHT22;22185;48.738;9.324;2023-04-08T01:57:44;8.60;99.90
36132;DHT22;22185;48.738;9.324;2023-04-08T01:59:49;8.70;99.90
36132;DHT22;22185;48.738;9.324;2023-04-08T02:01:52;8.70;99.90
36132;DHT22;22185;48.738;9.324;2023-04-08T02:03:54;8.70;99.90
36132;DHT22;22185;48.738;9.324;2023-04-08T02:05:57;8.70;99.90
36132;DHT22;22185;48.738;9.324;2023-04-08T02:08:00;8.70;99.90
36132;DHT22;22185;48.738;9.324;2023-04-08T02:10:01;8.70;99.90
36132;DHT22;22185;48.738;9.324;2023-04-08T02:12:03;8.60;99.90
36132;DHT22;22185;48.738;9.324;2023-04-08T02:14:05;8.60;99.90
36132;DHT22;22185;48.738;9.324;2023-04-08T02:16:23;8.60;99.90
36132;DHT22;22185;48.738;9.324;2023-04-08T02:18:26;8.60;99.90
36132;DHT22;22185;48.738;9.324;2023-04-08T02:20:36;8.60;99.90
36132;DHT22;22185;48.738;9.324;2023-04-08T02:22:59;8.60;99.90
36132;DHT22;22185;48.738;9.324;2023-04-08T02:25:03;8.60;99.90
36132;DHT22;22185;48.738;9.324;2023-04-08T02:27:09;8.60;99.90
36132;DHT22;22185;48.738;9.324;2023-04-08T02:29:11;8.60;99.90
36132;DHT22;22185;48.738;9.324;2023-04-08T02:31:14;8.60;99.90
36132;DHT22;22185;48.738;9.324;2023-04-08T02:33:18;8.50;99.90
36132;DHT22;22185;48.738;9.324;2023-04-08T02:35:20;8.50;99.90
36132;DHT22;22185;48.738;9.324;2023-04-08T02:37:22;8.50;99.90
36132;DHT22;22185;48.738;9.324;2023-04-08T02:39:29;8.50;99.90
36132;DHT22;22185;48.738;9.324;2023-04-08T02:41:31;8.50;99.90
36132;DHT22;22185;48.738;9.324;2023-04-08T02:43:33;8.50;99.90
36132;DHT22;22185;48.738;9.324;2023-04-08T02:45:39;8.40;99.90
36132;DHT22;22185;48.738;9.324;2023-04-08T02:47:41;8.50;99.90
36132;DHT22;22185;48.738;9.324;2023-04-08T02:49:43;8.40;99.90
36132;DHT22;22185;48.738;9.324;2023-04-08T02:51:45;8.50;99.90
36132;DHT22;22185;48.738;9.324;2023-04-08T02:53:46;8.50;99.90
36132;DHT22;22185;48.738;9.324;2023-04-08T02:55:48;8.40;99.90
36132;DHT22;22185;48.738;9.324;2023-04-08T02:57:50;8.40;99.90
36132;DHT22;22185;48.738;9.324;2023-04-08T02:59:51;8.40;99.90
36132;DHT22;22185;48.738;9.324;2023-04-08T03:01:53;8.40;99.90
36132;DHT22;22185;48.738;9.324;2023-04-08T03:03:55;8.40;99.90
36132;DHT22;22185;48.738;9.324;2023-04-08T03:05:56;8.40;99.90
36132;DHT22;22185;48.738;9.324;2023-04-08T03:07:58;8.40;99.90
36132;DHT22;22185;48.738;9.324;2023-04-08T03:10:00;8.40;99.90
36132;DHT22;22185;48.738;9.324;2023-04-08T03:12:02;8.40;99.90
36132;DHT22;22185;48.738;9.324;2023-04-08T03:14:04;8.40;99.90
36132;DHT22;22185;48.738;9.324;2023-04-08T03:16:06;8.40;99.90
36132;DHT22;22185;48.738;9.324;2023-04-08T03:18:08;8.30;99.90
36132;DHT22;22185;48.738;9.324;2023-04-08T03:20:09;8.30;99.90
36132;DHT22;22185;48.738;9.324;2023-04-08T03:22:12;8.30;99.90
36132;DHT22;22185;48.738;9.324;2023-04-08T03:24:13;8.30;99.90
36132;DHT22;22185;48.738;9.324;2023-04-08T03:26:15;8.30;99.90
36132;DHT22;22185;48.738;9.324;2023-04-08T03:28:17;8.30;99.90
36132;DHT22;22185;48.738;9.324;2023-04-08T03:30:18;8.30;99.90
36132;DHT22;22185;48.738;9.324;2023-04-08T03:32:20;8.30;99.90
36132;DHT22;22185;48.738;9.324;2023-04-08T03:34:22;8.30;99.90
36132;DHT22;22185;48.738;9.324;2023-04-08T03:36:23;8.20;99.90
36132;DHT22;22185;48.738;9.324;2023-04-08T03:38:25;8.20;99.90
36132;DHT22;22185;48.738;9.324;2023-04-08T03:40:27;8.10;99.90
36132;DHT22;22185;48.738;9.324;2023-04-08T03:42:28;8.10;99.90
36132;DHT22;22185;48.738;9.324;2023-04-08T03:44:30;8.10;99.90
36132;DHT22;22185;48.738;9.324;2023-04-08T03:46:31;8.20;99.90
36132;DHT22;22185;48.738;9.324;2023-04-08T03:48:33;8.20;99.90
36132;DHT22;22185;48.738;9.324;2023-04-08T03:50:35;8.10;99.90
36132;DHT22;22185;48.738;9.324;2023-04-08T03:52:36;8.20;99.90
36132;DHT22;22185;48.738;9.324;2023-04-08T03:54:38;8.20;99.90
36132;DHT22;22185;48.738;9.324;2023-04-08T03:56:40;8.20;99.90
36132;DHT22;22185;48.738;9.324;2023-04-08T03:58:41;8.20;99.90
36132;DHT22;22185;48.738;9.324;2023-04-08T04:00:43;8.10;99.90
36132;DHT22;22185;48.738;9.324;2023-04-08T04:02:45;8.10;99.90
36132;DHT22;22185;48.738;9.324;2023-04-08T04:04:46;8.00;99.90
36132;DHT22;22185;48.738;9.324;2023-04-08T04:06:48;8.10;99.90
36132;DHT22;22185;48.738;9.324;2023-04-08T04:08:51;8.00;99.90
36132;DHT22;22185;48.738;9.324;2023-04-08T04:10:53;8.00;99.90
36132;DHT22;22185;48.738;9.324;2023-04-08T04:12:55;8.00;99.90
36132;DHT22;22185;48.738;9.324;2023-04-08T04:14:57;8.00;99.90
36132;DHT22;22185;48.738;9.324;2023-04-08T04:16:58;8.00;99.90
36132;DHT22;22185;48.738;9.324;2023-04-08T04:19:00;7.90;99.90
36132;DHT22;22185;48.738;9.324;2023-04-08T04:21:05;7.90;99.90
36132;DHT22;22185;48.738;9.324;2023-04-08T04:23:10;7.90;99.90
36132;DHT22;22185;48.738;9.324;2023-04-08T04:25:12;7.90;99.90
36132;DHT22;22185;48.738;9.324;2023-04-08T04:27:14;7.90;99.90
36132;DHT22;22185;48.738;9.324;2023-04-08T04:29:15;7.80;99.90
36132;DHT22;22185;48.738;9.324;2023-04-08T04:31:30;7.80;99.90
36132;DHT22;22185;48.738;9.324;2023-04-08T04:33:37;7.90;99.90
36132;DHT22;22185;48.738;9.324;2023-04-08T04:35:41;7.80;99.90
36132;DHT22;22185;48.738;9.324;2023-04-08T04:38:00;7.80;99.90
36132;DHT22;22185;48.738;9.324;2023-04-08T04:40:14;7.80;99.90
36132;DHT22;22185;48.738;9.324;2023-04-08T04:42:28;7.80;99.90
36132;DHT22;22185;48.738;9.324;2023-04-08T04:44:35;7.70;99.90
36132;DHT22;22185;48.738;9.324;2023-04-08T04:46:54;7.80;99.90
36132;DHT22;22185;48.738;9.324;2023-04-08T04:49:07;7.70;99.90
36132;DHT22;22185;48.738;9.324;2023-04-08T04:51:14;7.70;99.90
36132;DHT22;22185;48.738;9.324;2023-04-08T04:53:27;7.70;99.90
36132;DHT22;22185;48.738;9.324;2023-04-08T04:55:44;7.70;99.90
36132;DHT22;22185;48.738;9.324;2023-04-08T04:58:03;7.60;99.90
36132;DHT22;22185;48.738;9.324;2023-04-08T05:00:09;7.70;99.90
36132;DHT22;22185;48.738;9.324;2023-04-08T05:02:14;7.70;99.90
36132;DHT22;22185;48.738;9.324;2023-04-08T05:04:20;7.70;99.90
36132;DHT22;22185;48.738;9.324;2023-04-08T05:06:32;7.80;99.90
36132;DHT22;22185;48.738;9.324;2023-04-08T05:08:46;7.80;99.90
36132;DHT22;22185;48.738;9.324;2023-04-08T05:10:52;7.80;99.90
36132;DHT22;22185;48.738;9.324;2023-04-08T05:12:58;7.90;99.90
36132;DHT22;22185;48.738;9.324;2023-04-08T05:15:15;7.90;99.90
36132;DHT22;22185;48.738;9.324;2023-04-08T05:17:31;7.90;99.90
36132;DHT22;22185;48.738;9.324;2023-04-08T05:19:47;7.90;99.90
36132;DHT22;22185;48.738;9.324;2023-04-08T05:27:25;8.00;99.90
36132;DHT22;22185;48.738;9.324;2023-04-08T05:29:55;8.00;99.90
36132;DHT22;22185;48.738;9.324;2023-04-08T05:32:06;8.00;99.90
36132;DHT22;22185;48.738;9.324;2023-04-08T05:34:11;8.10;99.90
36132;DHT22;22185;48.738;9.324;2023-04-08T05:36:25;8.10;99.90
36132;DHT22;22185;48.738;9.324;2023-04-08T05:38:50;8.10;99.90
36132;DHT22;22185;48.738;9.324;2023-04-08T05:41:40;8.20;99.90
36132;DHT22;22185;48.738;9.324;2023-04-08T05:43:58;8.20;99.90
36132;DHT22;22185;48.738;9.324;2023-04-08T05:53:27;8.10;99.90
36132;DHT22;22185;48.738;9.324;2023-04-08T06:01:15;8.30;99.90
36132;DHT22;22185;48.738;9.324;2023-04-08T06:03:49;8.30;99.90
36132;DHT22;22185;48.738;9.324;2023-04-08T06:06:13;8.20;99.90
36132;DHT22;22185;48.738;9.324;2023-04-08T06:08:37;8.30;99.90
36132;DHT22;22185;48.738;9.324;2023-04-08T06:14:12;8.20;99.90
36132;DHT22;22185;48.738;9.324;2023-04-08T06:17:12;8.20;99.90
36132;DHT22;22185;48.738;9.324;2023-04-08T06:19:28;8.30;99.90
36132;DHT22;22185;48.738;9.324;2023-04-08T06:24:30;8.30;99.90
36132;DHT22;22185;48.738;9.324;2023-04-08T06:26:48;8.20;99.90
36132;DHT22;22185;48.738;9.324;2023-04-08T06:28:55;8.20;99.90
36132;DHT22;22185;48.738;9.324;2023-04-08T06:31:21;8.10;99.90
36132;DHT22;22185;48.738;9.324;2023-04-08T06:36:57;8.10;99.90
36132;DHT22;22185;48.738;9.324;2023-04-08T06:39:14;8.10;99.90
36132;DHT22;22185;48.738;9.324;2023-04-08T06:44:50;8.50;99.90
36132;DHT22;22185;48.738;9.324;2023-04-08T07:08:04;8.60;99.90
36132;DHT22;22185;48.738;9.324;2023-04-08T07:10:18;8.40;99.90
36132;DHT22;22185;48.738;9.324;2023-04-08T07:13:02;8.50;99.90
36132;DHT22;22185;48.738;9.324;2023-04-08T07:15:37;8.60;99.90
36132;DHT22;22185;48.738;9.324;2023-04-08T07:20:52;8.70;99.90
36132;DHT22;22185;48.738;9.324;2023-04-08T07:23:39;8.40;99.90
36132;DHT22;22185;48.738;9.324;2023-04-08T07:26:35;8.60;99.90
36132;DHT22;22185;48.738;9.324;2023-04-08T07:28:52;8.60;99.90
36132;DHT22;22185;48.738;9.324;2023-04-08T07:31:23;8.70;99.90
36132;DHT22;22185;48.738;9.324;2023-04-08T07:34:48;8.90;99.90
36132;DHT22;22185;48.738;9.324;2023-04-08T07:43:48;8.90;99.90
36132;DHT22;22185;48.738;9.324;2023-04-08T07:46:47;9.00;99.90
36132;DHT22;22185;48.738;9.324;2023-04-08T08:05:47;9.20;99.90
36132;DHT22;22185;48.738;9.324;2023-04-08T08:12:04;9.50;99.90
36132;DHT22;22185;48.738;9.324;2023-04-08T08:17:47;9.50;99.90
36132;DHT22;22185;48.738;9.324;2023-04-08T08:20:11;9.50;99.90
36132;DHT22;22185;48.738;9.324;2023-04-08T08:22:58;9.10;99.90
36132;DHT22;22185;48.738;9.324;2023-04-08T08:25:04;9.50;99.90
36132;DHT22;22185;48.738;9.324;2023-04-08T08:27:27;9.50;99.90
36132;DHT22;22185;48.738;9.324;2023-04-08T08:32:53;9.70;99.90
36132;DHT22;22185;48.738;9.324;2023-04-08T08:35:01;9.80;99.90
36132;DHT22;22185;48.738;9.324;2023-04-08T08:37:06;9.70;99.90
36132;DHT22;22185;48.738;9.324;2023-04-08T08:39:33;9.80;99.90
36132;DHT22;22185;48.738;9.324;2023-04-08T08:41:49;9.80;99.90
36132;DHT22;22185;48.738;9.324;2023-04-08T08:44:13;10.10;99.90
36132;DHT22;22185;48.738;9.324;2023-04-08T08:46:48;10.10;99.90
36132;DHT22;22185;48.738;9.324;2023-04-08T08:55:22;10.30;99.90
36132;DHT22;22185;48.738;9.324;2023-04-08T08:58:32;10.10;99.90
36132;DHT22;22185;48.738;9.324;2023-04-08T09:04:32;10.10;99.90
36132;DHT22;22185;48.738;9.324;2023-04-08T09:07:12;9.90;99.90
36132;DHT22;22185;48.738;9.324;2023-04-08T09:16:02;10.60;99.90
36132;DHT22;22185;48.738;9.324;2023-04-08T09:18:48;10.80;99.90
36132;DHT22;22185;48.738;9.324;2023-04-08T09:21:31;10.50;99.90
36132;DHT22;22185;48.738;9.324;2023-04-08T09:26:56;11.10;99.90
36132;DHT22;22185;48.738;9.324;2023-04-08T09:29:33;11.20;99.90
36132;DHT22;22185;48.738;9.324;2023-04-08T09:32:03;10.90;99.90
36132;DHT22;22185;48.738;9.324;2023-04-08T09:44:56;11.00;99.90
36132;DHT22;22185;48.738;9.324;2023-04-08T10:03:55;11.90;99.90
36132;DHT22;22185;48.738;9.324;2023-04-08T10:06:34;11.60;99.90
36132;DHT22;22185;48.738;9.324;2023-04-08T10:08:39;12.20;99.90
36132;DHT22;22185;48.738;9.324;2023-04-08T10:10:42;12.00;99.90
36132;DHT22;22185;48.738;9.324;2023-04-08T10:12:47;11.80;99.90
36132;DHT22;22185;48.738;9.324;2023-04-08T10:15:24;11.90;99.90
36132;DHT22;22185;48.738;9.324;2023-04-08T10:17:24;12.30;99.90
36132;DHT22;22185;48.738;9.324;2023-04-08T10:19:39;12.40;99.90
36132;DHT22;22185;48.738;9.324;2023-04-08T10:21:42;12.10;99.90
36132;DHT22;22185;48.738;9.324;2023-04-08T10:23:55;11.90;99.90
36132;DHT22;22185;48.738;9.324;2023-04-08T10:26:03;12.10;99.90
36132;DHT22;22185;48.738;9.324;2023-04-08T10:28:25;11.80;99.90
36132;DHT22;22185;48.738;9.324;2023-04-08T10:32:30;11.80;99.90
36132;DHT22;22185;48.738;9.324;2023-04-08T10:34:50;11.60;99.90
36132;DHT22;22185;48.738;9.324;2023-04-08T10:36:53;11.60;99.90
36132;DHT22;22185;48.738;9.324;2023-04-08T10:39:10;11.70;99.90
36132;DHT22;22185;48.738;9.324;2023-04-08T10:41:22;11.60;99.90
36132;DHT22;22185;48.738;9.324;2023-04-08T10:43:24;11.50;99.90
36132;DHT22;22185;48.738;9.324;2023-04-08T10:45:26;11.20;99.90
36132;DHT22;22185;48.738;9.324;2023-04-08T10:47:29;11.30;99.90
36132;DHT22;22185;48.738;9.324;2023-04-08T10:49:32;11.40;99.90
36132;DHT22;22185;48.738;9.324;2023-04-08T10:51:38;11.40;99.90
36132;DHT22;22185;48.738;9.324;2023-04-08T10:53:40;10.80;99.90
36132;DHT22;22185;48.738;9.324;2023-04-08T10:55:46;10.80;99.90
36132;DHT22;22185;48.738;9.324;2023-04-08T10:57:52;10.90;99.90
36132;DHT22;22185;48.738;9.324;2023-04-08T11:00:01;10.90;99.90
36132;DHT22;22185;48.738;9.324;2023-04-08T11:02:11;10.90;99.90
36132;DHT22;22185;48.738;9.324;2023-04-08T11:04:15;11.00;99.90
36132;DHT22;22185;48.738;9.324;2023-04-08T11:06:18;11.20;99.90
36132;DHT22;22185;48.738;9.324;2023-04-08T11:08:26;11.40;99.90
36132;DHT22;22185;48.738;9.324;2023-04-08T11:10:27;11.40;99.90
36132;DHT22;22185;48.738;9.324;2023-04-08T11:12:30;11.40;99.90
36132;DHT22;22185;48.738;9.324;2023-04-08T11:14:33;11.10;99.90
36132;DHT22;22185;48.738;9.324;2023-04-08T11:16:36;11.20;99.90
36132;DHT22;22185;48.738;9.324;2023-04-08T11:18:40;11.40;99.90
36132;DHT22;22185;48.738;9.324;2023-04-08T11:20:42;11.20;99.90
36132;DHT22;22185;48.738;9.324;2023-04-08T11:22:48;11.20;99.90
36132;DHT22;22185;48.738;9.324;2023-04-08T11:24:51;11.40;99.90
36132;DHT22;22185;48.738;9.324;2023-04-08T11:26:53;11.60;99.90
36132;DHT22;22185;48.738;9.324;2023-04-08T11:28:56;11.50;99.90
36132;DHT22;22185;48.738;9.324;2023-04-08T11:30:59;11.50;99.90
36132;DHT22;22185;48.738;9.324;2023-04-08T11:33:01;11.70;99.90
36132;DHT22;22185;48.738;9.324;2023-04-08T11:35:04;11.80;99.90
36132;DHT22;22185;48.738;9.324;2023-04-08T11:37:11;11.70;99.90
36132;DHT22;22185;48.738;9.324;2023-04-08T11:45:47;11.10;99.90
36132;DHT22;22185;48.738;9.324;2023-04-08T11:48:45;11.30;99.90
36132;DHT22;22185;48.738;9.324;2023-04-08T11:51:13;11.30;99.90
36132;DHT22;22185;48.738;9.324;2023-04-08T11:53:26;11.50;99.90
36132;DHT22;22185;48.738;9.324;2023-04-08T11:56:29;11.30;99.90
36132;DHT22;22185;48.738;9.324;2023-04-08T12:01:32;11.30;99.90
36132;DHT22;22185;48.738;9.324;2023-04-08T12:03:38;11.40;99.90
36132;DHT22;22185;48.738;9.324;2023-04-08T12:06:05;11.50;99.90
36132;DHT22;22185;48.738;9.324;2023-04-08T12:08:46;11.40;99.90
36132;DHT22;22185;48.738;9.324;2023-04-08T12:11:09;11.40;99.90
36132;DHT22;22185;48.738;9.324;2023-04-08T12:16:26;11.30;99.90
36132;DHT22;22185;48.738;9.324;2023-04-08T12:19:00;11.10;99.90
36132;DHT22;22185;48.738;9.324;2023-04-08T12:21:13;11.40;99.90
36132;DHT22;22185;48.738;9.324;2023-04-08T12:23:39;11.50;99.90
36132;DHT22;22185;48.738;9.324;2023-04-08T12:26:07;11.80;99.90
36132;DHT22;22185;48.738;9.324;2023-04-08T12:28:16;11.60;99.90
36132;DHT22;22185;48.738;9.324;2023-04-08T12:30:24;11.60;99.90
36132;DHT22;22185;48.738;9.324;2023-04-08T12:32:49;11.80;99.90
36132;DHT22;22185;48.738;9.324;2023-04-08T12:35:34;11.90;99.90
36132;DHT22;22185;48.738;9.324;2023-04-08T12:38:18;11.60;99.90
36132;DHT22;22185;48.738;9.324;2023-04-08T12:40:54;11.50;99.90
36132;DHT22;22185;48.738;9.324;2023-04-08T12:43:00;11.70;99.90
36132;DHT22;22185;48.738;9.324;2023-04-08T12:45:09;12.10;99.90
36132;DHT22;22185;48.738;9.324;2023-04-08T12:47:28;12.20;99.90
36132;DHT22;22185;48.738;9.324;2023-04-08T12:49:55;12.40;99.90
36132;DHT22;22185;48.738;9.324;2023-04-08T12:52:29;12.30;99.90
36132;DHT22;22185;48.738;9.324;2023-04-08T12:58:06;12.30;99.90
36132;DHT22;22185;48.738;9.324;2023-04-08T13:00:45;12.20;99.90
36132;DHT22;22185;48.738;9.324;2023-04-08T13:02:47;11.70;99.90
36132;DHT22;22185;48.738;9.324;2023-04-08T13:04:49;11.40;99.90
36132;DHT22;22185;48.738;9.324;2023-04-08T13:06:51;11.40;99.90
36132;DHT22;22185;48.738;9.324;2023-04-08T13:08:53;11.70;99.90
36132;DHT22;22185;48.738;9.324;2023-04-08T13:10:55;11.90;99.90
36132;DHT22;22185;48.738;9.324;2023-04-08T13:12:57;11.80;99.90
36132;DHT22;22185;48.738;9.324;2023-04-08T13:14:58;12.00;99.90
36132;DHT22;22185;48.738;9.324;2023-04-08T13:17:01;11.80;99.90
36132;DHT22;22185;48.738;9.324;2023-04-08T13:19:03;11.80;99.90
36132;DHT22;22185;48.738;9.324;2023-04-08T13:21:04;11.80;99.90
36132;DHT22;22185;48.738;9.324;2023-04-08T13:23:06;11.70;99.90
36132;DHT22;22185;48.738;9.324;2023-04-08T13:25:08;11.80;99.90
36132;DHT22;22185;48.738;9.324;2023-04-08T13:27:10;11.40;99.90
36132;DHT22;22185;48.738;9.324;2023-04-08T13:29:11;11.60;99.90
36132;DHT22;22185;48.738;9.324;2023-04-08T13:31:13;11.50;99.90
36132;DHT22;22185;48.738;9.324;2023-04-08T13:33:14;11.40;99.90
36132;DHT22;22185;48.738;9.324;2023-04-08T13:35:16;11.50;99.90
36132;DHT22;22185;48.738;9.324;2023-04-08T13:37:18;11.60;99.90
36132;DHT22;22185;48.738;9.324;2023-04-08T13:39:20;11.60;99.90
36132;DHT22;22185;48.738;9.324;2023-04-08T13:41:22;11.60;99.90
36132;DHT22;22185;48.738;9.324;2023-04-08T13:43:25;11.40;99.90
36132;DHT22;22185;48.738;9.324;2023-04-08T13:45:27;11.40;99.90
36132;DHT22;22185;48.738;9.324;2023-04-08T13:47:29;11.30;99.90
36132;DHT22;22185;48.738;9.324;2023-04-08T13:49:31;11.10;99.90
36132;DHT22;22185;48.738;9.324;2023-04-08T13:51:33;11.20;99.90
36132;DHT22;22185;48.738;9.324;2023-04-08T13:53:34;11.10;99.90
36132;DHT22;22185;48.738;9.324;2023-04-08T13:55:36;11.00;99.90
36132;DHT22;22185;48.738;9.324;2023-04-08T13:57:38;11.10;99.90
36132;DHT22;22185;48.738;9.324;2023-04-08T13:59:39;11.10;99.90
36132;DHT22;22185;48.738;9.324;2023-04-08T14:01:44;11.30;99.90
36132;DHT22;22185;48.738;9.324;2023-04-08T14:03:46;11.40;99.90
36132;DHT22;22185;48.738;9.324;2023-04-08T14:05:50;11.40;99.90
36132;DHT22;22185;48.738;9.324;2023-04-08T14:07:51;11.40;99.90
36132;DHT22;22185;48.738;9.324;2023-04-08T14:09:53;11.40;99.90
36132;DHT22;22185;48.738;9.324;2023-04-08T14:11:55;11.50;99.90
36132;DHT22;22185;48.738;9.324;2023-04-08T14:13:57;11.40;99.90
36132;DHT22;22185;48.738;9.324;2023-04-08T14:15:58;11.50;99.90
36132;DHT22;22185;48.738;9.324;2023-04-08T14:18:02;11.40;99.90
36132;DHT22;22185;48.738;9.324;2023-04-08T14:20:04;11.30;99.90
36132;DHT22;22185;48.738;9.324;2023-04-08T14:22:07;10.90;99.90
36132;DHT22;22185;48.738;9.324;2023-04-08T14:24:08;11.10;99.90
36132;DHT22;22185;48.738;9.324;2023-04-08T14:26:10;11.30;99.90
36132;DHT22;22185;48.738;9.324;2023-04-08T14:28:12;11.20;99.90
36132;DHT22;22185;48.738;9.324;2023-04-08T14:30:13;11.10;99.90
36132;DHT22;22185;48.738;9.324;2023-04-08T14:32:15;11.10;99.90
36132;DHT22;22185;48.738;9.324;2023-04-08T14:34:17;11.20;99.90
36132;DHT22;22185;48.738;9.324;2023-04-08T14:36:19;11.10;99.90
36132;DHT22;22185;48.738;9.324;2023-04-08T14:38:21;11.20;99.90
36132;DHT22;22185;48.738;9.324;2023-04-08T14:40:23;11.20;99.90
36132;DHT22;22185;48.738;9.324;2023-04-08T14:42:25;11.20;99.90
36132;DHT22;22185;48.738;9.324;2023-04-08T14:44:27;11.00;99.90
36132;DHT22;22185;48.738;9.324;2023-04-08T14:46:29;11.00;99.90
36132;DHT22;22185;48.738;9.324;2023-04-08T14:48:30;11.20;99.90
36132;DHT22;22185;48.738;9.324;2023-04-08T14:50:32;11.30;99.90
36132;DHT22;22185;48.738;9.324;2023-04-08T14:52:34;11.30;99.90
36132;DHT22;22185;48.738;9.324;2023-04-08T14:54:35;11.30;99.90
36132;DHT22;22185;48.738;9.324;2023-04-08T14:56:37;11.40;99.90
36132;DHT22;22185;48.738;9.324;2023-04-08T14:58:39;11.50;99.90
36132;DHT22;22185;48.738;9.324;2023-04-08T15:00:41;11.40;99.90
36132;DHT22;22185;48.738;9.324;2023-04-08T15:02:46;11.30;99.90
36132;DHT22;22185;48.738;9.324;2023-04-08T15:04:48;11.30;99.90
36132;DHT22;22185;48.738;9.324;2023-04-08T15:06:49;11.40;99.90
36132;DHT22;22185;48.738;9.324;2023-04-08T15:08:52;11.50;99.90
36132;DHT22;22185;48.738;9.324;2023-04-08T15:10:54;11.30;99.90
36132;DHT22;22185;48.738;9.324;2023-04-08T15:12:55;11.40;99.90
36132;DHT22;22185;48.738;9.324;2023-04-08T15:14:57;11.50;99.90
36132;DHT22;22185;48.738;9.324;2023-04-08T15:16:59;11.60;99.90
36132;DHT22;22185;48.738;9.324;2023-04-08T15:19:00;11.60;99.90
36132;DHT22;22185;48.738;9.324;2023-04-08T15:21:02;11.70;99.90
36132;DHT22;22185;48.738;9.324;2023-04-08T15:23:04;11.60;99.90
36132;DHT22;22185;48.738;9.324;2023-04-08T15:25:06;11.60;99.90
36132;DHT22;22185;48.738;9.324;2023-04-08T15:27:08;11.60;99.90
36132;DHT22;22185;48.738;9.324;2023-04-08T15:29:10;11.70;99.90
36132;DHT22;22185;48.738;9.324;2023-04-08T15:31:12;11.70;99.90
36132;DHT22;22185;48.738;9.324;2023-04-08T15:33:14;11.70;99.90
36132;DHT22;22185;48.738;9.324;2023-04-08T15:35:15;11.80;99.90
36132;DHT22;22185;48.738;9.324;2023-04-08T15:37:17;11.90;99.90
36132;DHT22;22185;48.738;9.324;2023-04-08T15:39:19;11.90;99.90
36132;DHT22;22185;48.738;9.324;2023-04-08T15:41:20;11.90;99.90
36132;DHT22;22185;48.738;9.324;2023-04-08T15:43:22;11.90;99.90
36132;DHT22;22185;48.738;9.324;2023-04-08T15:45:24;11.80;99.90
36132;DHT22;22185;48.738;9.324;2023-04-08T15:47:26;11.70;99.90
36132;DHT22;22185;48.738;9.324;2023-04-08T15:49:28;11.70;99.90
36132;DHT22;22185;48.738;9.324;2023-04-08T15:51:30;11.70;99.90
36132;DHT22;22185;48.738;9.324;2023-04-08T15:53:33;11.60;99.90
36132;DHT22;22185;48.738;9.324;2023-04-08T15:55:38;11.60;99.90
36132;DHT22;22185;48.738;9.324;2023-04-08T15:57:40;11.50;99.90
36132;DHT22;22185;48.738;9.324;2023-04-08T15:59:42;11.30;99.90
36132;DHT22;22185;48.738;9.324;2023-04-08T16:01:43;11.40;99.90
36132;DHT22;22185;48.738;9.324;2023-04-08T16:03:45;11.50;99.90
36132;DHT22;22185;48.738;9.324;2023-04-08T16:05:47;11.60;99.90
36132;DHT22;22185;48.738;9.324;2023-04-08T16:07:49;11.60;99.90
36132;DHT22;22185;48.738;9.324;2023-04-08T16:09:50;11.60;99.90
36132;DHT22;22185;48.738;9.324;2023-04-08T16:11:52;11.40;99.90
36132;DHT22;22185;48.738;9.324;2023-04-08T16:13:54;11.50;99.90
36132;DHT22;22185;48.738;9.324;2023-04-08T16:15:56;11.50;99.90
36132;DHT22;22185;48.738;9.324;2023-04-08T16:17:58;11.50;99.90
36132;DHT22;22185;48.738;9.324;2023-04-08T16:20:00;11.40;99.90
36132;DHT22;22185;48.738;9.324;2023-04-08T16:22:02;11.40;99.90